Time;durP1;ratioP1;P1;durP2;ratioP2;P2;SDS_P1;SDS_P2;PMS_P1;PMS_P2;Temp;Humidity;BMP_temperature;BMP_pressure;BME280_temperature;BME280_humidity;BME280_pressure;Samples;Min_cycle;Max_cycle;Signal;HPM_P1;HPM_P2
2022/12/04 00:00:47;;;;;;;6.78;5.07;;;;;;;20.51;54.68;101044.38;20638594;28;20403;-79
2022/12/04 00:10:48;;;;;;;7.57;5.32;;;;;;;20.46;54.79;101039.41;20626971;28;20046;-81
2022/12/04 00:20:48;;;;;;;7.43;5.22;;;;;;;20.50;54.99;101033.97;20643382;28;20149;-80
2022/12/04 00:30:49;;;;;;;7.78;5.68;;;;;;;20.55;54.51;101053.75;20646020;28;20041;-81
2022/12/04 00:40:50;;;;;;;6.90;5.30;;;;;;;20.56;54.62;101055.44;20646735;28;20081;-82
2022/12/04 00:50:52;;;;;;;9.70;5.40;;;;;;;20.48;54.32;101040.16;20648551;28;20101;-83
2022/12/04 01:01:04;;;;;;;9.13;5.67;;;;;;;20.51;54.68;101049.63;20631919;28;20056;-81
2022/12/04 01:11:06;;;;;;;7.70;5.13;;;;;;;20.47;54.87;101054.25;20631469;28;20057;-81
2022/12/04 01:21:06;;;;;;;7.25;5.35;;;;;;;20.47;54.90;101056.03;20635545;28;24467;-82
2022/12/04 01:31:15;;;;;;;9.40;6.22;;;;;;;20.45;55.01;101053.50;20642068;28;20130;-82
2022/12/04 01:41:20;;;;;;;8.32;5.93;;;;;;;20.43;54.50;101041.38;20597307;28;20641;-83
2022/12/04 01:51:33;;;;;;;9.23;6.03;;;;;;;20.45;54.82;101052.66;20624340;28;20060;-83
2022/12/04 02:01:45;;;;;;;10.15;5.57;;;;;;;20.42;54.93;101043.19;20646165;28;20501;-82
2022/12/04 02:11:55;;;;;;;9.35;5.50;;;;;;;20.43;54.69;101038.75;20617918;28;20069;-79
2022/12/04 02:22:00;;;;;;;10.30;6.15;;;;;;;20.43;54.52;101034.34;20624976;28;20046;-79
2022/12/04 02:32:21;;;;;;;7.07;5.40;;;;;;;20.42;54.18;101039.69;20629725;28;20045;-81
2022/12/04 02:42:38;;;;;;;8.55;6.03;;;;;;;20.39;54.48;101027.56;20634265;28;20137;-82
2022/12/04 02:52:57;;;;;;;7.60;5.28;;;;;;;20.37;54.57;101045.22;20639341;28;20130;-83
2022/12/04 03:03:14;;;;;;;8.27;5.60;;;;;;;20.36;54.46;101033.06;20650932;28;22091;-81
2022/12/04 03:13:21;;;;;;;7.53;5.93;;;;;;;20.35;54.43;101027.88;20642482;28;20054;-80
2022/12/04 03:23:30;;;;;;;10.23;5.40;;;;;;;20.34;54.65;101021.78;20652926;28;20064;-80
2022/12/04 03:33:39;;;;;;;8.50;6.05;;;;;;;20.32;54.41;101026.28;20641624;28;20060;-81
2022/12/04 03:43:54;;;;;;;8.45;5.93;;;;;;;20.30;54.32;101023.75;20641820;28;20050;-81
2022/12/04 03:54:02;;;;;;;10.57;6.10;;;;;;;20.29;54.41;101029.94;20642604;28;21828;-80
2022/12/04 04:04:08;;;;;;;9.10;6.10;;;;;;;20.29;54.41;101035.22;20637901;28;20054;-80
2022/12/04 04:25:11;;;;;;;7.07;5.60;;;;;;;20.27;54.30;101031.81;20629974;28;20065;-81
2022/12/04 04:35:12;;;;;;;7.30;5.68;;;;;;;20.27;54.52;101038.88;20645198;28;20046;-82
2022/12/04 04:45:19;;;;;;;9.70;6.68;;;;;;;20.27;54.22;101031.81;20656287;28;20122;-80
2022/12/04 04:55:21;;;;;;;8.65;5.78;;;;;;;20.26;54.07;101035.41;20641531;28;20082;-80
2022/12/04 05:05:23;;;;;;;10.88;6.05;;;;;;;20.26;54.38;101040.69;20632887;28;20064;-80
2022/12/04 05:15:24;;;;;;;9.87;6.07;;;;;;;20.33;54.18;101040.28;20630575;28;20081;-81
2022/12/04 05:25:24;;;;;;;8.38;6.10;;;;;;;20.42;53.96;101024.78;20598824;28;20057;-82
2022/12/04 05:35:25;;;;;;;8.83;5.90;;;;;;;20.50;53.22;101029.53;20623115;28;20046;-81
2022/12/04 05:45:25;;;;;;;9.80;6.35;;;;;;;20.56;53.48;101031.75;20628384;28;20411;-80
2022/12/04 05:55:26;;;;;;;14.35;6.20;;;;;;;20.63;53.58;101019.06;20602600;28;20050;-80
2022/12/04 06:05:26;;;;;;;6.88;5.10;;;;;;;20.71;53.52;101029.91;20592963;28;20054;-81
2022/12/04 06:15:26;;;;;;;9.93;5.75;;;;;;;20.75;54.13;101038.47;20624113;28;20070;-82
2022/12/04 06:25:27;;;;;;;8.15;5.75;;;;;;;20.83;53.94;101048.53;20665237;28;20042;-82
2022/12/04 06:35:27;;;;;;;10.20;6.00;;;;;;;20.89;53.83;101046.31;20683653;28;20046;-82
2022/12/04 06:45:28;;;;;;;10.00;6.82;;;;;;;20.97;54.40;101042.34;20664334;28;20401;-83
2022/12/04 06:55:28;;;;;;;11.57;7.38;;;;;;;21.05;54.62;101040.06;20676923;28;20046;-84
2022/12/04 07:05:29;;;;;;;9.48;6.75;;;;;;;21.14;54.60;101033.31;20700357;28;20052;-86
2022/12/04 07:15:33;;;;;;;11.48;7.55;;;;;;;21.18;53.83;101037.44;20678803;28;20054;-85
2022/12/04 07:25:38;;;;;;;18.23;7.88;;;;;;;21.24;53.63;101048.41;20667880;28;20056;-81
2022/12/04 07:35:38;;;;;;;11.38;7.32;;;;;;;21.29;53.66;101056.00;20643139;28;20041;-85
2022/12/04 07:45:40;;;;;;;11.57;7.20;;;;;;;21.33;53.27;101036.41;20651198;28;20143;-82
2022/12/04 07:55:41;;;;;;;12.65;7.53;;;;;;;21.37;53.22;101051.06;20615825;28;20050;-80
2022/12/04 08:05:42;;;;;;;10.65;7.25;;;;;;;21.42;53.00;101042.84;20627107;28;20072;-83
2022/12/04 08:15:42;;;;;;;13.18;7.38;;;;;;;21.41;52.21;101031.47;20592929;28;20042;-80
2022/12/04 08:25:43;;;;;;;14.50;8.60;;;;;;;21.44;53.26;101036.50;20608799;28;20149;-80
2022/12/04 08:35:44;;;;;;;13.18;7.38;;;;;;;21.44;53.05;101033.88;20606180;28;20045;-86
2022/12/04 08:45:53;;;;;;;12.07;7.50;;;;;;;21.50;53.21;101044.97;20582776;28;20046;-85
2022/12/04 08:55:55;;;;;;;15.25;7.65;;;;;;;21.55;53.27;101042.84;20603639;28;20832;-83
2022/12/04 09:06:00;;;;;;;12.33;7.90;;;;;;;21.54;52.51;101046.44;20656842;28;20054;-83
2022/12/04 09:16:06;;;;;;;29.55;14.43;;;;;;;20.30;44.97;101039.53;20627770;28;20152;-83
2022/12/04 09:26:17;;;;;;;21.10;13.02;;;;;;;20.82;47.54;101031.88;20619106;28;20045;-84
2022/12/04 09:36:18;;;;;;;17.50;10.45;;;;;;;21.06;48.80;101013.63;20662815;28;20042;-84
2022/12/04 09:46:35;;;;;;;14.55;9.77;;;;;;;21.23;49.24;100999.31;20647482;28;20066;-83
2022/12/04 09:56:37;;;;;;;14.23;9.30;;;;;;;21.32;49.43;100994.38;20646707;28;20050;-83
2022/12/04 10:06:56;;;;;;;16.27;9.90;;;;;;;21.39;49.81;100969.28;20621240;28;20042;-83
2022/12/04 10:17:26;;;;;;;22.30;10.60;;;;;;;21.51;50.36;100964.97;20618072;28;20042;-83
2022/12/04 10:27:47;;;;;;;20.60;11.82;;;;;;;21.62;52.76;100945.78;20635983;28;20077;-81
2022/12/04 10:37:54;;;;;;;21.45;15.02;;;;;;;21.34;40.11;100932.72;20627054;28;20105;-82
2022/12/04 10:47:54;;;;;;;23.10;13.63;;;;;;;20.03;36.42;100928.22;20626705;28;20046;-82
2022/12/04 10:57:55;;;;;;;36.67;15.98;;;;;;;21.16;50.62;100912.94;20629356;28;21848;-85
2022/12/04 11:07:57;;;;;;;36.70;18.73;;;;;;;21.36;52.97;100896.59;20605564;28;20041;-86
2022/12/04 11:18:18;;;;;;;35.17;17.97;;;;;;;21.55;54.04;100884.75;20655469;28;20394;-82
2022/12/04 11:28:23;;;;;;;44.67;18.73;;;;;;;21.73;57.13;100870.28;20655206;28;20108;-84
2022/12/04 11:38:27;;;;;;;32.63;17.25;;;;;;;21.83;57.95;100869.63;20636568;28;20174;-83
2022/12/04 11:48:30;;;;;;;24.65;13.90;;;;;;;21.82;55.86;100847.66;20633540;28;20034;-83
2022/12/04 11:58:36;;;;;;;23.83;12.85;;;;;;;21.87;56.18;100842.94;20670838;28;20228;-86
2022/12/04 12:08:58;;;;;;;18.30;11.43;;;;;;;21.89;56.33;100827.00;20685258;28;20050;-84
2022/12/04 12:19:36;;;;;;;20.17;10.52;;;;;;;21.87;55.05;100835.03;20690646;28;20050;-84
2022/12/04 12:29:51;;;;;;;15.35;9.10;;;;;;;21.82;54.84;100837.13;20645135;28;20042;-85
2022/12/04 12:40:00;;;;;;;15.88;9.05;;;;;;;21.77;54.92;100835.81;20615657;28;20442;-90
2022/12/04 12:50:09;;;;;;;12.88;8.15;;;;;;;21.74;54.43;100831.59;20639898;28;20103;-85
2022/12/04 13:00:21;;;;;;;12.25;7.65;;;;;;;21.74;54.33;100819.25;20645743;28;20101;-85
2022/12/04 13:10:25;;;;;;;;;;;;;;;21.69;54.43;100825.78;20654974;28;20056;-87
2022/12/04 13:20:37;;;;;;;11.70;6.95;;;;;;;21.69;54.11;100813.47;20671850;28;19926;-82
2022/12/04 13:31:03;;;;;;;13.30;7.30;;;;;;;21.66;53.81;100829.50;20673216;28;20057;-84
2022/12/04 13:41:09;;;;;;;9.80;6.78;;;;;;;21.61;53.91;100841.34;20671430;28;20054;-84
2022/12/04 13:51:12;;;;;;;10.63;6.90;;;;;;;21.60;53.34;100837.84;20682302;28;20074;-84
2022/12/04 14:01:27;;;;;;;22.90;8.88;;;;;;;21.13;48.82;100840.25;20656360;28;20129;-82
2022/12/04 14:11:31;;;;;;;17.98;8.45;;;;;;;21.23;48.77;100859.72;20636504;28;20045;-81
2022/12/04 14:21:43;;;;;;;18.23;7.82;;;;;;;21.30;50.83;100860.16;20637471;28;20064;-82
2022/12/04 14:31:44;;;;;;;13.43;7.83;;;;;;;21.31;51.37;100861.81;20620898;28;20058;-89
2022/12/04 14:41:44;;;;;;;13.20;7.00;;;;;;;21.39;52.75;100862.13;20652725;28;20062;-84
2022/12/04 14:52:06;;;;;;;11.68;6.68;;;;;;;21.35;52.95;100859.78;20660330;28;20038;-83
2022/12/04 15:02:17;;;;;;;16.60;7.20;;;;;;;21.34;52.28;100861.59;20643094;28;20050;-85
2022/12/04 15:12:35;;;;;;;13.68;7.22;;;;;;;21.38;52.11;100870.97;20643331;28;20046;-84
2022/12/04 15:22:35;;;;;;;10.43;6.13;;;;;;;21.41;52.48;100873.38;20666322;28;20062;-82
2022/12/04 15:32:36;;;;;;;10.27;6.70;;;;;;;21.42;52.00;100867.19;20664612;28;20049;-81
2022/12/04 15:42:36;;;;;;;8.48;6.18;;;;;;;21.47;52.36;100879.16;20651171;28;20079;-83
2022/12/04 15:52:56;;;;;;;10.70;6.25;;;;;;;21.44;52.09;100873.16;20638916;28;20049;-86
2022/12/04 16:02:58;;;;;;;9.32;6.18;;;;;;;21.46;51.74;100874.84;20649248;28;20045;-82
2022/12/04 16:13:01;;;;;;;7.30;5.75;;;;;;;21.47;52.19;100874.75;20652675;28;20620;-83
2022/12/04 16:23:04;;;;;;;7.65;5.72;;;;;;;21.48;51.83;100881.69;20652732;28;20173;-83
2022/12/04 16:33:05;;;;;;;8.77;6.10;;;;;;;21.48;51.72;100871.16;20648670;28;20050;-84
2022/12/04 16:43:05;;;;;;;8.45;5.63;;;;;;;21.49;51.94;100872.84;20645050;28;20125;-83
2022/12/04 16:53:08;;;;;;;7.32;5.50;;;;;;;21.49;52.46;100872.00;20649110;28;20034;-85
2022/12/04 17:03:28;;;;;;;9.07;6.10;;;;;;;21.44;51.96;100867.88;20654417;28;20057;-84
2022/12/04 17:13:29;;;;;;;7.50;5.60;;;;;;;21.38;51.75;100881.50;20591743;28;20187;-85
2022/12/04 17:23:29;;;;;;;7.22;5.45;;;;;;;21.31;51.92;100871.50;20633293;28;20057;-85
2022/12/04 17:33:30;;;;;;;7.85;5.70;;;;;;;21.26;52.05;100892.91;20628710;28;20058;-85
2022/12/04 17:43:31;;;;;;;15.63;5.38;;;;;;;21.21;51.93;100893.22;20608252;28;20099;-84
2022/12/04 17:53:31;;;;;;;9.77;5.18;;;;;;;21.22;52.62;100899.34;20603052;28;20155;-84
2022/12/04 18:03:32;;;;;;;18.13;5.93;;;;;;;21.20;52.96;100891.56;20611661;28;20042;-83
2022/12/04 18:13:33;;;;;;;24.08;6.43;;;;;;;21.19;52.87;100891.63;20602172;28;20042;-82
2022/12/04 18:23:36;;;;;;;9.65;5.80;;;;;;;21.15;53.28;100901.53;20608980;28;20065;-81
2022/12/04 18:33:37;;;;;;;;;;;;;;;21.21;53.50;100905.56;20634864;28;20053;-83
2022/12/04 18:43:40;;;;;;;9.68;5.97;;;;;;;21.27;53.10;100919.13;20632695;28;19926;-82
2022/12/04 18:53:40;;;;;;;8.90;5.82;;;;;;;21.30;53.38;100920.72;20615097;28;20132;-79
2022/12/04 19:03:41;;;;;;;10.25;6.50;;;;;;;21.30;53.66;100909.34;20619622;28;20057;-80
2022/12/04 19:13:41;;;;;;;14.55;9.85;;;;;;;21.34;53.76;100911.66;20603620;28;20069;-82
2022/12/04 19:23:47;;;;;;;17.45;13.25;;;;;;;21.35;53.70;100908.06;20610446;28;20112;-82
2022/12/04 19:33:47;;;;;;;16.30;10.95;;;;;;;21.36;53.88;100919.44;20606553;28;20047;-82
2022/12/04 19:43:50;;;;;;;15.70;9.40;;;;;;;21.36;53.63;100916.81;20639378;28;20045;-81
2022/12/04 19:53:52;;;;;;;;;;;;;;;21.34;53.97;100909.03;20599757;28;20049;-83
2022/12/04 20:03:53;;;;;;;10.73;7.95;;;;;;;21.34;53.84;100910.81;20655437;28;21659;-81
2022/12/04 20:13:55;;;;;;;11.43;7.45;;;;;;;21.36;53.48;100908.91;20642582;28;21069;-82
2022/12/04 20:24:00;;;;;;;10.40;7.20;;;;;;;21.35;53.05;100930.91;20634023;28;20386;-83
2022/12/04 20:34:02;;;;;;;10.93;7.55;;;;;;;21.33;53.15;100932.84;20632748;28;20107;-83
2022/12/04 20:44:04;;;;;;;11.03;7.33;;;;;;;21.33;53.44;100940.75;20654205;28;20046;-81
2022/12/04 20:54:06;;;;;;;13.07;7.15;;;;;;;21.32;53.86;100946.97;20629618;28;20053;-81
2022/12/04 21:04:07;;;;;;;11.20;6.43;;;;;;;21.31;53.52;100951.38;20654605;28;20043;-80
2022/12/04 21:24:47;;;;;;;14.88;7.18;;;;;;;21.21;53.01;100945.88;20651065;28;20592;-84
2022/12/04 21:34:48;;;;;;;10.55;6.78;;;;;;;21.14;53.72;100942.00;20639976;28;20457;-84
2022/12/04 21:44:49;;;;;;;10.07;7.00;;;;;;;21.04;54.02;100954.94;20660771;28;20767;-83
2022/12/04 21:54:51;;;;;;;7.53;5.97;;;;;;;21.00;54.32;100950.00;20656046;28;20046;-85
2022/12/04 22:04:51;;;;;;;9.77;6.17;;;;;;;20.97;54.29;100955.47;20656387;28;20045;-82
2022/12/04 22:14:53;;;;;;;10.38;6.20;;;;;;;20.94;54.17;100956.53;20679719;28;20041;-84
2022/12/04 22:24:53;;;;;;;8.23;5.80;;;;;;;20.90;54.59;100960.31;20670066;28;20038;-83
2022/12/04 22:34:53;;;;;;;8.50;6.00;;;;;;;20.85;54.60;100946.59;20635935;28;20050;-84
2022/12/04 22:44:54;;;;;;;7.95;5.68;;;;;;;20.84;54.74;100945.75;20656862;28;20049;-83
2022/12/04 22:54:54;;;;;;;9.32;5.43;;;;;;;20.81;54.67;100940.69;20675306;28;20053;-85
2022/12/04 23:04:55;;;;;;;6.63;4.88;;;;;;;20.72;54.80;100954.47;20646657;28;20109;-79
2022/12/04 23:14:55;;;;;;;11.52;5.55;;;;;;;20.68;54.96;100950.31;20620495;28;20047;-81
2022/12/04 23:24:58;;;;;;;7.10;5.05;;;;;;;20.69;54.98;100936.22;20660056;28;20049;-80
2022/12/04 23:34:58;;;;;;;5.95;4.43;;;;;;;20.68;54.85;100930.13;20652198;28;20043;-80
2022/12/04 23:44:59;;;;;;;6.28;4.72;;;;;;;20.65;54.85;100940.84;20662353;28;20046;-80
2022/12/04 23:54:59;;;;;;;5.15;4.28;;;;;;;20.58;54.66;100944.81;20652909;28;20034;-81
